createdAt,value
2019-05-21T00:00:13.102Z,22.90
2019-05-21T00:05:16.938Z,23.00
2019-05-21T00:10:20.638Z,23.00
2019-05-21T00:15:24.348Z,23.00
2019-05-21T00:20:28.003Z,23.00
2019-05-21T00:25:31.722Z,23.00
2019-05-21T00:31:11.160Z,23.00
2019-05-21T00:36:52.572Z,23.00
2019-05-21T00:42:02.082Z,23.00
2019-05-21T00:47:06.083Z,23.00
2019-05-21T00:52:10.081Z,23.00
2019-05-21T00:57:13.730Z,23.00
2019-05-21T01:02:17.351Z,23.00
2019-05-21T01:07:21.003Z,23.00
2019-05-21T01:12:24.863Z,23.00
2019-05-21T01:17:28.570Z,22.90
2019-05-21T01:22:32.411Z,23.00
2019-05-21T01:27:36.134Z,23.00
2019-05-21T01:32:39.975Z,23.00
2019-05-21T01:37:43.782Z,23.00
2019-05-21T01:42:47.420Z,23.00
2019-05-21T01:47:51.342Z,23.00
2019-05-21T01:52:55.063Z,23.00
2019-05-21T01:57:58.793Z,23.00
2019-05-21T02:03:02.445Z,23.00
2019-05-21T02:08:06.179Z,23.00
2019-05-21T02:13:09.915Z,23.00
2019-05-21T02:18:13.728Z,23.00
2019-05-21T02:23:17.693Z,23.00
2019-05-21T02:28:21.360Z,23.00
2019-05-21T02:33:25.103Z,23.00
2019-05-21T02:38:28.954Z,23.00
2019-05-21T02:43:32.884Z,23.00
2019-05-21T02:48:36.735Z,23.00
2019-05-21T02:53:40.560Z,23.00
2019-05-21T02:58:44.404Z,23.00
2019-05-21T03:03:48.122Z,23.00
2019-05-21T03:08:51.885Z,23.00
2019-05-21T03:13:55.543Z,23.00
2019-05-21T03:18:59.286Z,23.00
2019-05-21T03:24:02.993Z,23.00
2019-05-21T03:29:06.714Z,23.00
2019-05-21T03:34:10.516Z,23.00
2019-05-21T03:39:18.503Z,23.00
2019-05-21T03:44:19.706Z,23.00
2019-05-21T03:49:23.455Z,23.00
2019-05-21T03:54:27.161Z,23.00
2019-05-21T03:59:30.867Z,23.00
2019-05-21T04:04:34.609Z,23.00
2019-05-21T04:09:38.403Z,23.00
2019-05-21T04:14:46.448Z,23.00
2019-05-21T04:19:50.394Z,23.00
2019-05-21T04:24:54.161Z,23.00
2019-05-21T04:29:57.937Z,23.00
2019-05-21T04:35:01.671Z,23.00
2019-05-21T04:40:05.519Z,23.00
2019-05-21T04:45:09.234Z,23.00
2019-05-21T04:50:13.138Z,23.00
2019-05-21T04:55:16.874Z,23.00
2019-05-21T05:00:20.699Z,23.00
2019-05-21T05:05:24.591Z,23.00
2019-05-21T05:10:28.512Z,23.00
2019-05-21T05:15:32.251Z,23.00
2019-05-21T05:20:36.141Z,23.00
2019-05-21T05:25:40.039Z,23.00
2019-05-21T05:30:43.844Z,23.00
2019-05-21T05:35:47.863Z,23.00
2019-05-21T05:40:51.601Z,23.10
2019-05-21T05:45:55.581Z,23.10
2019-05-21T05:51:01.231Z,23.10
2019-05-21T05:56:04.999Z,23.10
2019-05-21T06:01:09.760Z,23.10
2019-05-21T06:06:13.622Z,23.10
2019-05-21T06:11:17.489Z,23.10
2019-05-21T06:16:21.327Z,23.10
2019-05-21T06:21:25.192Z,23.10
2019-05-21T06:26:29.087Z,23.10
2019-05-21T06:31:32.779Z,23.10
2019-05-21T06:36:36.562Z,23.10
2019-05-21T06:41:40.491Z,23.10
2019-05-21T06:47:04.039Z,23.20
2019-05-21T06:52:07.855Z,23.10
2019-05-21T06:57:11.720Z,23.20
2019-05-21T07:02:15.656Z,23.20
2019-05-21T07:07:19.438Z,23.20
2019-05-21T07:12:23.221Z,23.20
2019-05-21T07:17:27.044Z,23.20
2019-05-21T07:22:30.863Z,23.20
2019-05-21T07:27:34.631Z,23.20
2019-05-21T07:32:39.042Z,23.20
2019-05-21T07:37:43.154Z,23.20
2019-05-21T07:42:47.046Z,23.20
2019-05-21T07:47:50.893Z,23.20
2019-05-21T07:52:54.738Z,23.20
2019-05-21T07:57:58.525Z,23.20
2019-05-21T08:03:02.338Z,23.20
2019-05-21T08:08:06.101Z,23.20
2019-05-21T08:13:09.961Z,23.20
2019-05-21T08:18:13.964Z,23.20
2019-05-21T08:23:17.738Z,23.20
2019-05-21T08:28:21.503Z,23.20
2019-05-21T08:33:25.222Z,23.20
2019-05-21T08:38:29.076Z,23.20
2019-05-21T08:43:33.001Z,23.20
2019-05-21T08:48:36.824Z,23.20
2019-05-21T08:53:40.899Z,23.20
2019-05-21T08:58:44.676Z,23.20
2019-05-21T09:03:48.446Z,23.20
2019-05-21T09:08:52.305Z,23.20
2019-05-21T09:13:56.258Z,23.20
2019-05-21T09:19:00.096Z,23.20
2019-05-21T09:24:03.893Z,23.20
2019-05-21T09:29:07.746Z,23.20
2019-05-21T09:34:11.488Z,23.20
2019-05-21T09:39:15.529Z,23.20
2019-05-21T09:44:19.265Z,23.20
2019-05-21T09:49:23.045Z,23.20
2019-05-21T09:54:26.824Z,23.20
2019-05-21T09:59:55.379Z,23.20
2019-05-21T10:04:59.153Z,23.20
2019-05-21T10:10:03.085Z,23.20
2019-05-21T10:15:07.991Z,23.20
2019-05-21T10:20:11.602Z,23.20
2019-05-21T10:25:15.961Z,23.20
2019-05-21T10:30:19.799Z,23.20
2019-05-21T10:35:23.751Z,23.20
2019-05-21T10:40:27.540Z,23.20
2019-05-21T10:45:31.315Z,23.20
2019-05-21T10:50:34.961Z,23.20
2019-05-21T10:55:38.652Z,23.20
2019-05-21T11:00:43.614Z,23.20
2019-05-21T11:06:07.411Z,23.20
2019-05-21T11:10:58.065Z,23.20
2019-05-21T11:16:01.647Z,23.20
2019-05-21T11:21:05.518Z,23.20
2019-05-21T11:26:09.551Z,23.30
2019-05-21T11:31:13.256Z,23.20
2019-05-21T11:36:16.983Z,23.30
2019-05-21T11:41:20.750Z,23.20
2019-05-21T11:46:24.581Z,23.30
2019-05-21T11:51:28.339Z,23.30
2019-05-21T11:56:32.106Z,23.30
2019-05-21T12:01:35.887Z,23.30
2019-05-21T12:06:48.240Z,23.30
2019-05-21T12:11:52.058Z,23.30
2019-05-21T12:16:55.843Z,23.30
2019-05-21T12:21:59.594Z,23.30
2019-05-21T12:27:03.431Z,23.30
2019-05-21T12:32:07.150Z,23.30
2019-05-21T12:37:10.963Z,23.30
2019-05-21T12:42:14.719Z,23.30
2019-05-21T12:47:18.472Z,23.30
2019-05-21T12:52:22.486Z,23.30
2019-05-21T12:57:26.398Z,23.30
2019-05-21T13:02:30.180Z,23.30
2019-05-21T13:07:34.720Z,23.30
2019-05-21T13:12:38.613Z,23.30
2019-05-21T13:17:42.467Z,23.30
2019-05-21T13:22:46.386Z,23.30
2019-05-21T13:27:50.213Z,23.30
2019-05-21T13:32:54.162Z,23.30
2019-05-21T13:37:57.912Z,23.30
2019-05-21T13:43:01.696Z,23.30
2019-05-21T13:48:05.505Z,23.30
2019-05-21T13:53:09.538Z,23.40
2019-05-21T13:58:13.343Z,23.30
2019-05-21T14:03:16.999Z,23.40
2019-05-21T14:08:20.948Z,23.40
2019-05-21T14:13:24.900Z,23.40
2019-05-21T14:18:28.774Z,23.40
2019-05-21T14:23:34.188Z,23.40
2019-05-21T14:28:37.870Z,23.40
2019-05-21T14:33:41.695Z,23.40
2019-05-21T14:38:45.448Z,23.40
2019-05-21T14:43:49.300Z,23.40
2019-05-21T14:48:53.077Z,23.40
2019-05-21T14:54:03.055Z,23.40
2019-05-21T14:59:07.049Z,23.50
2019-05-21T15:04:11.408Z,23.60
2019-05-21T15:09:15.824Z,23.70
2019-05-21T15:14:19.661Z,23.50
2019-05-21T15:19:23.457Z,23.50
2019-05-21T15:24:27.261Z,23.50
2019-05-21T15:29:31.209Z,23.50
2019-05-21T15:34:35.047Z,23.50
2019-05-21T15:39:38.782Z,23.50
2019-05-21T15:44:42.586Z,23.50
2019-05-21T15:49:46.334Z,23.50
2019-05-21T15:54:50.470Z,23.50
2019-05-21T15:59:54.534Z,23.50
2019-05-21T16:04:59.364Z,23.50
2019-05-21T16:10:03.193Z,23.50
2019-05-21T16:15:07.366Z,23.50
2019-05-21T16:20:11.663Z,23.50
2019-05-21T16:25:16.620Z,23.50
2019-05-21T16:30:20.485Z,23.50
2019-05-21T16:35:24.259Z,23.50
2019-05-21T16:40:28.205Z,23.50
2019-05-21T16:45:32.186Z,23.50
2019-05-21T16:50:35.996Z,23.50
2019-05-21T16:55:40.025Z,23.50
2019-05-21T17:00:43.852Z,23.50
2019-05-21T17:05:47.632Z,23.50
2019-05-21T17:10:51.509Z,23.50
2019-05-21T17:15:55.634Z,23.50
2019-05-21T17:20:59.399Z,23.50
2019-05-21T17:26:03.146Z,23.50
2019-05-21T17:31:06.868Z,23.50
2019-05-21T17:36:10.625Z,23.50
2019-05-21T17:41:14.376Z,23.50
2019-05-21T17:46:18.254Z,23.50
2019-05-21T17:51:21.930Z,23.50
2019-05-21T17:56:25.707Z,23.50
2019-05-21T18:01:29.953Z,23.50
2019-05-21T18:06:33.833Z,23.50
2019-05-21T18:11:37.757Z,23.50
2019-05-21T18:16:42.034Z,23.50
2019-05-21T18:21:46.096Z,23.50
2019-05-21T18:26:49.997Z,23.50
2019-05-21T18:31:53.979Z,23.50
2019-05-21T18:36:58.372Z,23.50
2019-05-21T18:42:02.282Z,23.50
2019-05-21T18:47:06.166Z,23.50
2019-05-21T18:52:10.088Z,23.50
2019-05-21T18:57:13.852Z,23.50
2019-05-21T19:02:17.587Z,23.40
2019-05-21T19:07:21.310Z,23.40
2019-05-21T19:12:36.999Z,23.40
2019-05-21T19:17:35.715Z,23.40
2019-05-21T19:22:36.255Z,23.40
2019-05-21T19:27:40.144Z,23.40
2019-05-21T19:32:44.745Z,23.40
2019-05-21T19:37:48.460Z,23.40
2019-05-21T19:42:55.378Z,23.40
2019-05-21T19:47:57.710Z,23.40
2019-05-21T19:53:01.361Z,23.40
2019-05-21T19:58:05.323Z,23.40
2019-05-21T20:03:09.108Z,23.50
2019-05-21T20:08:13.192Z,23.50
2019-05-21T20:13:25.061Z,23.40
2019-05-21T20:18:23.404Z,23.50
2019-05-21T20:23:27.552Z,23.40
2019-05-21T20:28:31.452Z,23.40
2019-05-21T20:33:36.776Z,23.50
2019-05-21T20:38:40.733Z,23.40
2019-05-21T20:43:58.203Z,23.40
2019-05-21T20:48:50.303Z,23.40
2019-05-21T20:53:54.457Z,23.40
2019-05-21T20:58:58.252Z,23.50
2019-05-21T21:04:05.106Z,23.50
2019-05-21T21:09:10.304Z,23.70
2019-05-21T21:14:18.226Z,23.80
2019-05-21T21:19:21.693Z,23.80
2019-05-21T21:24:25.876Z,23.60
2019-05-21T21:29:29.638Z,23.50
2019-05-21T21:34:33.498Z,23.50
2019-05-21T21:39:37.832Z,23.40
2019-05-21T21:44:41.699Z,23.40
2019-05-21T21:49:46.899Z,23.40
2019-05-21T21:54:50.778Z,23.60
2019-05-21T21:59:57.138Z,23.60
2019-05-21T22:05:01.172Z,23.50
2019-05-21T22:10:06.670Z,23.50
2019-05-21T22:15:10.722Z,23.50
2019-05-21T22:20:15.267Z,23.50
2019-05-21T22:25:19.134Z,23.50
2019-05-21T22:30:23.121Z,23.50
2019-05-21T22:35:27.106Z,23.50
2019-05-21T22:40:30.879Z,23.40
2019-05-21T22:45:34.633Z,23.50
2019-05-21T22:50:38.365Z,23.50
2019-05-21T22:55:42.476Z,23.50
2019-05-21T23:00:46.612Z,23.50
2019-05-21T23:05:50.346Z,23.50
2019-05-21T23:10:54.018Z,23.50
2019-05-21T23:15:57.850Z,23.50
2019-05-21T23:21:03.321Z,23.50
2019-05-21T23:26:07.615Z,23.50
2019-05-21T23:31:13.009Z,23.50
2019-05-21T23:36:16.939Z,23.50
2019-05-21T23:41:20.699Z,23.50
2019-05-21T23:46:24.627Z,23.50
2019-05-21T23:51:28.429Z,23.50
2019-05-21T23:56:32.190Z,23.50
